sensor_id;sensor_type;location;lat;lon;timestamp;temperature;humidity
23143;DHT22;11740;51.168;4.112;2023-11-19T00:00:07;13.40;99.90
23143;DHT22;11740;51.168;4.112;2023-11-19T00:02:39;13.40;99.90
23143;DHT22;11740;51.168;4.112;2023-11-19T00:05:07;13.40;99.90
23143;DHT22;11740;51.168;4.112;2023-11-19T00:07:35;13.40;99.90
23143;DHT22;11740;51.168;4.112;2023-11-19T00:10:03;13.40;97.10
23143;DHT22;11740;51.168;4.112;2023-11-19T00:12:34;13.40;99.50
23143;DHT22;11740;51.168;4.112;2023-11-19T00:15:00;13.40;92.00
23143;DHT22;11740;51.168;4.112;2023-11-19T00:17:28;13.40;74.40
23143;DHT22;11740;51.168;4.112;2023-11-19T00:19:55;13.40;51.20
23143;DHT22;11740;51.168;4.112;2023-11-19T00:22:22;13.40;27.10
23143;DHT22;11740;51.168;4.112;2023-11-19T00:24:49;13.40;19.50
23143;DHT22;11740;51.168;4.112;2023-11-19T00:27:16;13.40;1.00
23143;DHT22;11740;51.168;4.112;2023-11-19T00:29:44;13.40;1.00
23143;DHT22;11740;51.168;4.112;2023-11-19T00:32:11;13.40;1.00
23143;DHT22;11740;51.168;4.112;2023-11-19T00:34:38;13.40;1.00
23143;DHT22;11740;51.168;4.112;2023-11-19T00:37:05;13.40;1.00
23143;DHT22;11740;51.168;4.112;2023-11-19T00:39:33;13.40;1.00
23143;DHT22;11740;51.168;4.112;2023-11-19T00:42:00;13.40;1.00
23143;DHT22;11740;51.168;4.112;2023-11-19T00:44:27;13.40;1.00
23143;DHT22;11740;51.168;4.112;2023-11-19T00:46:54;13.40;99.90
23143;DHT22;11740;51.168;4.112;2023-11-19T00:49:21;13.40;99.90
23143;DHT22;11740;51.168;4.112;2023-11-19T00:51:48;13.40;99.90
23143;DHT22;11740;51.168;4.112;2023-11-19T00:54:16;13.40;99.90
23143;DHT22;11740;51.168;4.112;2023-11-19T00:56:43;13.30;99.90
23143;DHT22;11740;51.168;4.112;2023-11-19T00:59:11;13.30;1.00
23143;DHT22;11740;51.168;4.112;2023-11-19T01:01:38;13.30;1.00
23143;DHT22;11740;51.168;4.112;2023-11-19T01:04:05;13.30;1.00
23143;DHT22;11740;51.168;4.112;2023-11-19T01:06:32;13.30;1.00
23143;DHT22;11740;51.168;4.112;2023-11-19T01:08:59;13.20;1.00
23143;DHT22;11740;51.168;4.112;2023-11-19T01:11:27;13.20;1.00
23143;DHT22;11740;51.168;4.112;2023-11-19T01:13:54;13.10;1.00
23143;DHT22;11740;51.168;4.112;2023-11-19T01:16:21;13.10;1.00
23143;DHT22;11740;51.168;4.112;2023-11-19T01:18:49;13.10;1.00
23143;DHT22;11740;51.168;4.112;2023-11-19T01:21:16;13.10;1.00
23143;DHT22;11740;51.168;4.112;2023-11-19T01:23:43;13.10;1.00
23143;DHT22;11740;51.168;4.112;2023-11-19T01:26:11;13.00;1.00
23143;DHT22;11740;51.168;4.112;2023-11-19T01:28:39;13.00;1.00
23143;DHT22;11740;51.168;4.112;2023-11-19T01:31:17;13.00;1.00
23143;DHT22;11740;51.168;4.112;2023-11-19T01:33:44;12.90;1.00
23143;DHT22;11740;51.168;4.112;2023-11-19T01:36:13;12.90;1.00
23143;DHT22;11740;51.168;4.112;2023-11-19T01:38:40;12.90;1.00
23143;DHT22;11740;51.168;4.112;2023-11-19T01:41:07;12.90;1.00
23143;DHT22;11740;51.168;4.112;2023-11-19T01:43:35;12.90;99.90
23143;DHT22;11740;51.168;4.112;2023-11-19T01:46:04;12.90;99.90
23143;DHT22;11740;51.168;4.112;2023-11-19T01:48:33;12.80;99.90
23143;DHT22;11740;51.168;4.112;2023-11-19T01:51:01;12.90;99.90
23143;DHT22;11740;51.168;4.112;2023-11-19T01:53:30;12.90;99.90
23143;DHT22;11740;51.168;4.112;2023-11-19T01:55:58;12.90;99.90
23143;DHT22;11740;51.168;4.112;2023-11-19T01:58:25;12.80;99.90
23143;DHT22;11740;51.168;4.112;2023-11-19T02:00:52;12.80;99.90
23143;DHT22;11740;51.168;4.112;2023-11-19T02:03:19;12.80;99.90
23143;DHT22;11740;51.168;4.112;2023-11-19T02:05:47;12.80;99.90
23143;DHT22;11740;51.168;4.112;2023-11-19T02:08:15;12.80;99.90
23143;DHT22;11740;51.168;4.112;2023-11-19T02:10:42;12.80;99.90
23143;DHT22;11740;51.168;4.112;2023-11-19T02:13:10;12.70;99.90
23143;DHT22;11740;51.168;4.112;2023-11-19T02:15:40;12.70;99.90
23143;DHT22;11740;51.168;4.112;2023-11-19T02:18:17;12.80;99.90
23143;DHT22;11740;51.168;4.112;2023-11-19T02:20:44;12.80;99.90
23143;DHT22;11740;51.168;4.112;2023-11-19T02:23:13;12.80;99.90
23143;DHT22;11740;51.168;4.112;2023-11-19T02:25:40;12.70;99.90
23143;DHT22;11740;51.168;4.112;2023-11-19T02:28:07;12.70;99.90
23143;DHT22;11740;51.168;4.112;2023-11-19T02:30:34;12.70;99.90
23143;DHT22;11740;51.168;4.112;2023-11-19T02:33:02;12.70;99.90
23143;DHT22;11740;51.168;4.112;2023-11-19T02:35:32;12.70;99.90
23143;DHT22;11740;51.168;4.112;2023-11-19T02:38:00;12.60;99.90
23143;DHT22;11740;51.168;4.112;2023-11-19T02:40:27;12.60;99.90
23143;DHT22;11740;51.168;4.112;2023-11-19T02:42:54;12.60;99.90
23143;DHT22;11740;51.168;4.112;2023-11-19T02:45:23;12.50;99.90
23143;DHT22;11740;51.168;4.112;2023-11-19T02:47:51;12.50;99.90
23143;DHT22;11740;51.168;4.112;2023-11-19T02:50:19;12.50;99.90
23143;DHT22;11740;51.168;4.112;2023-11-19T02:52:52;12.50;99.90
23143;DHT22;11740;51.168;4.112;2023-11-19T02:55:20;12.50;99.90
23143;DHT22;11740;51.168;4.112;2023-11-19T02:57:47;12.50;99.90
23143;DHT22;11740;51.168;4.112;2023-11-19T03:00:15;12.50;99.90
23143;DHT22;11740;51.168;4.112;2023-11-19T03:02:50;12.40;99.90
23143;DHT22;11740;51.168;4.112;2023-11-19T03:05:32;12.40;99.90
23143;DHT22;11740;51.168;4.112;2023-11-19T03:07:59;12.40;99.90
23143;DHT22;11740;51.168;4.112;2023-11-19T03:10:26;12.40;99.90
23143;DHT22;11740;51.168;4.112;2023-11-19T03:12:53;12.40;99.90
23143;DHT22;11740;51.168;4.112;2023-11-19T03:15:21;12.40;99.90
23143;DHT22;11740;51.168;4.112;2023-11-19T03:17:48;12.40;99.90
23143;DHT22;11740;51.168;4.112;2023-11-19T03:20:15;12.40;99.90
23143;DHT22;11740;51.168;4.112;2023-11-19T03:22:43;12.40;99.90
23143;DHT22;11740;51.168;4.112;2023-11-19T03:25:13;12.40;99.90
23143;DHT22;11740;51.168;4.112;2023-11-19T03:27:40;12.30;99.90
23143;DHT22;11740;51.168;4.112;2023-11-19T03:30:08;12.30;99.90
23143;DHT22;11740;51.168;4.112;2023-11-19T03:32:38;12.30;99.90
23143;DHT22;11740;51.168;4.112;2023-11-19T03:35:06;12.30;99.90
23143;DHT22;11740;51.168;4.112;2023-11-19T03:37:33;12.30;99.90
23143;DHT22;11740;51.168;4.112;2023-11-19T03:40:00;12.30;99.90
23143;DHT22;11740;51.168;4.112;2023-11-19T03:42:29;12.30;99.90
23143;DHT22;11740;51.168;4.112;2023-11-19T03:44:57;12.30;48.80
23143;DHT22;11740;51.168;4.112;2023-11-19T03:47:24;12.30;22.60
23143;DHT22;11740;51.168;4.112;2023-11-19T03:49:51;12.30;25.60
23143;DHT22;11740;51.168;4.112;2023-11-19T03:52:18;12.30;29.60
23143;DHT22;11740;51.168;4.112;2023-11-19T03:54:47;12.30;45.30
23143;DHT22;11740;51.168;4.112;2023-11-19T03:57:13;12.30;16.40
23143;DHT22;11740;51.168;4.112;2023-11-19T03:59:42;12.30;19.40
23143;DHT22;11740;51.168;4.112;2023-11-19T04:02:09;12.30;18.80
23143;DHT22;11740;51.168;4.112;2023-11-19T04:04:36;12.20;10.80
23143;DHT22;11740;51.168;4.112;2023-11-19T04:07:05;12.20;1.00
23143;DHT22;11740;51.168;4.112;2023-11-19T04:09:32;12.20;1.00
23143;DHT22;11740;51.168;4.112;2023-11-19T04:11:59;12.10;1.00
23143;DHT22;11740;51.168;4.112;2023-11-19T04:14:26;12.10;1.00
23143;DHT22;11740;51.168;4.112;2023-11-19T04:16:53;12.10;1.00
23143;DHT22;11740;51.168;4.112;2023-11-19T04:19:20;12.00;99.90
23143;DHT22;11740;51.168;4.112;2023-11-19T04:21:48;12.00;99.90
23143;DHT22;11740;51.168;4.112;2023-11-19T04:24:15;11.90;99.90
23143;DHT22;11740;51.168;4.112;2023-11-19T04:26:43;11.90;99.90
23143;DHT22;11740;51.168;4.112;2023-11-19T04:29:11;11.90;99.90
23143;DHT22;11740;51.168;4.112;2023-11-19T04:31:39;11.90;73.90
23143;DHT22;11740;51.168;4.112;2023-11-19T04:34:07;11.80;39.20
23143;DHT22;11740;51.168;4.112;2023-11-19T04:36:34;11.80;32.10
23143;DHT22;11740;51.168;4.112;2023-11-19T04:39:01;11.80;49.50
23143;DHT22;11740;51.168;4.112;2023-11-19T04:41:29;11.70;21.80
23143;DHT22;11740;51.168;4.112;2023-11-19T04:43:55;11.70;1.00
23143;DHT22;11740;51.168;4.112;2023-11-19T04:46:22;11.70;1.00
23143;DHT22;11740;51.168;4.112;2023-11-19T04:48:50;11.70;1.00
23143;DHT22;11740;51.168;4.112;2023-11-19T04:51:18;11.60;1.00
23143;DHT22;11740;51.168;4.112;2023-11-19T04:53:44;11.60;1.00
23143;DHT22;11740;51.168;4.112;2023-11-19T04:56:11;11.60;1.00
23143;DHT22;11740;51.168;4.112;2023-11-19T04:58:39;11.60;1.00
23143;DHT22;11740;51.168;4.112;2023-11-19T05:01:13;11.60;1.00
23143;DHT22;11740;51.168;4.112;2023-11-19T05:03:41;11.50;1.00
23143;DHT22;11740;51.168;4.112;2023-11-19T05:06:08;11.50;1.00
23143;DHT22;11740;51.168;4.112;2023-11-19T05:08:35;11.50;1.00
23143;DHT22;11740;51.168;4.112;2023-11-19T05:11:02;11.50;1.00
23143;DHT22;11740;51.168;4.112;2023-11-19T05:13:30;11.50;1.00
23143;DHT22;11740;51.168;4.112;2023-11-19T05:15:57;11.40;1.00
23143;DHT22;11740;51.168;4.112;2023-11-19T05:18:24;11.40;1.00
23143;DHT22;11740;51.168;4.112;2023-11-19T05:20:51;11.40;1.00
23143;DHT22;11740;51.168;4.112;2023-11-19T05:23:17;11.30;99.90
23143;DHT22;11740;51.168;4.112;2023-11-19T05:25:47;11.30;99.90
23143;DHT22;11740;51.168;4.112;2023-11-19T05:28:14;11.30;99.90
23143;DHT22;11740;51.168;4.112;2023-11-19T05:30:41;11.30;99.90
23143;DHT22;11740;51.168;4.112;2023-11-19T05:33:08;11.20;99.90
23143;DHT22;11740;51.168;4.112;2023-11-19T05:35:35;11.30;99.90
23143;DHT22;11740;51.168;4.112;2023-11-19T05:38:02;11.20;99.90
23143;DHT22;11740;51.168;4.112;2023-11-19T05:40:30;11.20;99.90
23143;DHT22;11740;51.168;4.112;2023-11-19T05:42:57;11.20;99.90
23143;DHT22;11740;51.168;4.112;2023-11-19T05:45:23;11.10;99.90
23143;DHT22;11740;51.168;4.112;2023-11-19T05:47:51;11.10;1.00
23143;DHT22;11740;51.168;4.112;2023-11-19T05:50:19;11.10;1.00
23143;DHT22;11740;51.168;4.112;2023-11-19T05:52:46;11.10;1.00
23143;DHT22;11740;51.168;4.112;2023-11-19T05:55:13;11.10;1.00
23143;DHT22;11740;51.168;4.112;2023-11-19T05:57:40;11.10;1.00
23143;DHT22;11740;51.168;4.112;2023-11-19T06:00:10;11.10;1.00
23143;DHT22;11740;51.168;4.112;2023-11-19T06:02:40;11.20;1.00
23143;DHT22;11740;51.168;4.112;2023-11-19T06:05:07;11.20;1.00
23143;DHT22;11740;51.168;4.112;2023-11-19T06:07:34;11.20;1.00
23143;DHT22;11740;51.168;4.112;2023-11-19T06:10:02;11.20;1.00
23143;DHT22;11740;51.168;4.112;2023-11-19T06:12:33;11.10;1.00
23143;DHT22;11740;51.168;4.112;2023-11-19T06:15:07;11.10;1.00
23143;DHT22;11740;51.168;4.112;2023-11-19T06:17:38;11.10;1.00
23143;DHT22;11740;51.168;4.112;2023-11-19T06:20:05;11.10;1.00
23143;DHT22;11740;51.168;4.112;2023-11-19T06:22:34;11.10;99.90
23143;DHT22;11740;51.168;4.112;2023-11-19T06:25:02;11.00;1.00
23143;DHT22;11740;51.168;4.112;2023-11-19T06:27:34;11.00;99.90
23143;DHT22;11740;51.168;4.112;2023-11-19T06:30:01;11.00;99.90
23143;DHT22;11740;51.168;4.112;2023-11-19T06:32:28;10.90;99.90
23143;DHT22;11740;51.168;4.112;2023-11-19T06:34:55;10.90;99.90
23143;DHT22;11740;51.168;4.112;2023-11-19T06:37:22;10.90;99.90
23143;DHT22;11740;51.168;4.112;2023-11-19T06:39:50;10.90;99.90
23143;DHT22;11740;51.168;4.112;2023-11-19T06:42:16;10.90;99.90
23143;DHT22;11740;51.168;4.112;2023-11-19T06:44:43;10.80;99.90
23143;DHT22;11740;51.168;4.112;2023-11-19T06:47:10;10.90;99.90
23143;DHT22;11740;51.168;4.112;2023-11-19T06:49:37;10.80;99.90
23143;DHT22;11740;51.168;4.112;2023-11-19T06:52:04;10.80;99.90
23143;DHT22;11740;51.168;4.112;2023-11-19T06:54:31;10.80;99.90
23143;DHT22;11740;51.168;4.112;2023-11-19T06:56:58;10.80;99.90
23143;DHT22;11740;51.168;4.112;2023-11-19T06:59:25;10.80;99.90
23143;DHT22;11740;51.168;4.112;2023-11-19T07:01:52;10.80;99.90
23143;DHT22;11740;51.168;4.112;2023-11-19T07:04:19;10.80;99.90
23143;DHT22;11740;51.168;4.112;2023-11-19T07:06:46;10.70;99.90
23143;DHT22;11740;51.168;4.112;2023-11-19T07:09:14;10.70;99.90
23143;DHT22;11740;51.168;4.112;2023-11-19T07:11:42;10.70;1.00
23143;DHT22;11740;51.168;4.112;2023-11-19T07:14:09;10.70;1.00
23143;DHT22;11740;51.168;4.112;2023-11-19T07:16:36;10.70;1.00
23143;DHT22;11740;51.168;4.112;2023-11-19T07:19:06;10.70;1.00
23143;DHT22;11740;51.168;4.112;2023-11-19T07:21:33;10.70;1.00
23143;DHT22;11740;51.168;4.112;2023-11-19T07:24:00;10.70;1.00
23143;DHT22;11740;51.168;4.112;2023-11-19T07:26:28;10.70;1.00
23143;DHT22;11740;51.168;4.112;2023-11-19T07:28:55;10.70;1.00
23143;DHT22;11740;51.168;4.112;2023-11-19T07:31:23;10.70;1.00
23143;DHT22;11740;51.168;4.112;2023-11-19T07:33:50;10.70;1.00
23143;DHT22;11740;51.168;4.112;2023-11-19T07:36:17;10.80;1.00
23143;DHT22;11740;51.168;4.112;2023-11-19T07:38:45;10.80;1.00
23143;DHT22;11740;51.168;4.112;2023-11-19T07:41:12;10.80;1.00
23143;DHT22;11740;51.168;4.112;2023-11-19T07:43:40;10.80;1.00
23143;DHT22;11740;51.168;4.112;2023-11-19T07:46:11;10.80;1.00
23143;DHT22;11740;51.168;4.112;2023-11-19T07:48:39;10.90;1.00
23143;DHT22;11740;51.168;4.112;2023-11-19T07:51:07;10.90;1.00
23143;DHT22;11740;51.168;4.112;2023-11-19T07:53:34;10.80;15.40
23143;DHT22;11740;51.168;4.112;2023-11-19T07:56:01;10.90;17.50
23143;DHT22;11740;51.168;4.112;2023-11-19T07:58:28;10.90;15.80
23143;DHT22;11740;51.168;4.112;2023-11-19T08:00:55;10.90;1.00
23143;DHT22;11740;51.168;4.112;2023-11-19T08:03:22;10.90;1.00
23143;DHT22;11740;51.168;4.112;2023-11-19T08:05:49;10.90;1.00
23143;DHT22;11740;51.168;4.112;2023-11-19T08:08:16;10.90;1.00
23143;DHT22;11740;51.168;4.112;2023-11-19T08:10:43;10.90;1.50
23143;DHT22;11740;51.168;4.112;2023-11-19T08:13:11;10.90;11.70
23143;DHT22;11740;51.168;4.112;2023-11-19T08:15:38;10.90;1.00
23143;DHT22;11740;51.168;4.112;2023-11-19T08:18:05;10.90;1.00
23143;DHT22;11740;51.168;4.112;2023-11-19T08:20:32;10.90;1.00
23143;DHT22;11740;51.168;4.112;2023-11-19T08:23:01;11.00;1.00
23143;DHT22;11740;51.168;4.112;2023-11-19T08:25:30;11.00;1.00
23143;DHT22;11740;51.168;4.112;2023-11-19T08:27:56;11.00;1.00
23143;DHT22;11740;51.168;4.112;2023-11-19T08:30:23;11.00;1.00
23143;DHT22;11740;51.168;4.112;2023-11-19T08:32:50;11.10;1.00
23143;DHT22;11740;51.168;4.112;2023-11-19T08:35:17;11.10;1.00
23143;DHT22;11740;51.168;4.112;2023-11-19T08:37:44;11.00;1.00
23143;DHT22;11740;51.168;4.112;2023-11-19T08:40:12;11.10;1.00
23143;DHT22;11740;51.168;4.112;2023-11-19T08:42:41;11.20;1.00
23143;DHT22;11740;51.168;4.112;2023-11-19T08:45:08;11.20;1.00
23143;DHT22;11740;51.168;4.112;2023-11-19T08:47:40;11.20;1.00
23143;DHT22;11740;51.168;4.112;2023-11-19T08:50:07;11.20;1.00
23143;DHT22;11740;51.168;4.112;2023-11-19T08:52:35;11.20;1.00
23143;DHT22;11740;51.168;4.112;2023-11-19T08:55:02;11.30;1.00
23143;DHT22;11740;51.168;4.112;2023-11-19T08:57:29;11.30;1.00
23143;DHT22;11740;51.168;4.112;2023-11-19T08:59:56;11.30;1.00
23143;DHT22;11740;51.168;4.112;2023-11-19T09:02:23;11.40;1.00
23143;DHT22;11740;51.168;4.112;2023-11-19T09:04:50;11.40;1.00
23143;DHT22;11740;51.168;4.112;2023-11-19T09:07:20;11.40;1.00
23143;DHT22;11740;51.168;4.112;2023-11-19T09:09:48;11.40;1.00
23143;DHT22;11740;51.168;4.112;2023-11-19T09:12:14;11.40;1.00
23143;DHT22;11740;51.168;4.112;2023-11-19T09:14:41;11.40;1.00
23143;DHT22;11740;51.168;4.112;2023-11-19T09:17:08;11.40;99.90
23143;DHT22;11740;51.168;4.112;2023-11-19T09:19:37;11.50;99.90
23143;DHT22;11740;51.168;4.112;2023-11-19T09:22:04;11.50;99.90
23143;DHT22;11740;51.168;4.112;2023-11-19T09:24:30;11.60;99.90
23143;DHT22;11740;51.168;4.112;2023-11-19T09:26:57;11.60;99.90
23143;DHT22;11740;51.168;4.112;2023-11-19T09:29:24;11.50;99.90
23143;DHT22;11740;51.168;4.112;2023-11-19T09:31:51;11.50;1.00
23143;DHT22;11740;51.168;4.112;2023-11-19T09:34:18;11.50;99.90
23143;DHT22;11740;51.168;4.112;2023-11-19T09:36:45;11.50;1.00
23143;DHT22;11740;51.168;4.112;2023-11-19T09:39:12;11.60;1.00
23143;DHT22;11740;51.168;4.112;2023-11-19T09:41:44;11.60;1.00
23143;DHT22;11740;51.168;4.112;2023-11-19T09:44:11;11.70;1.00
23143;DHT22;11740;51.168;4.112;2023-11-19T09:46:39;11.70;1.00
23143;DHT22;11740;51.168;4.112;2023-11-19T09:49:08;11.80;1.00
23143;DHT22;11740;51.168;4.112;2023-11-19T09:51:35;11.80;1.00
23143;DHT22;11740;51.168;4.112;2023-11-19T09:54:03;11.80;1.00
23143;DHT22;11740;51.168;4.112;2023-11-19T09:56:29;11.80;1.00
23143;DHT22;11740;51.168;4.112;2023-11-19T09:58:57;11.90;99.90
23143;DHT22;11740;51.168;4.112;2023-11-19T10:01:25;11.80;99.90
23143;DHT22;11740;51.168;4.112;2023-11-19T10:03:55;11.90;99.90
23143;DHT22;11740;51.168;4.112;2023-11-19T10:06:22;11.90;99.90
23143;DHT22;11740;51.168;4.112;2023-11-19T10:08:49;12.00;99.90
23143;DHT22;11740;51.168;4.112;2023-11-19T10:11:16;12.00;99.90
23143;DHT22;11740;51.168;4.112;2023-11-19T10:13:43;12.00;99.90
23143;DHT22;11740;51.168;4.112;2023-11-19T10:16:14;12.00;99.90
23143;DHT22;11740;51.168;4.112;2023-11-19T10:18:48;11.90;1.00
23143;DHT22;11740;51.168;4.112;2023-11-19T10:21:17;11.90;99.90
23143;DHT22;11740;51.168;4.112;2023-11-19T10:23:52;11.90;99.90
23143;DHT22;11740;51.168;4.112;2023-11-19T10:26:20;11.90;99.90
23143;DHT22;11740;51.168;4.112;2023-11-19T10:28:47;11.90;99.90
23143;DHT22;11740;51.168;4.112;2023-11-19T10:31:15;11.90;99.90
23143;DHT22;11740;51.168;4.112;2023-11-19T10:33:43;12.00;99.90
23143;DHT22;11740;51.168;4.112;2023-11-19T10:36:12;12.00;99.90
23143;DHT22;11740;51.168;4.112;2023-11-19T10:38:39;12.00;87.50
23143;DHT22;11740;51.168;4.112;2023-11-19T10:41:07;12.10;99.90
23143;DHT22;11740;51.168;4.112;2023-11-19T10:43:43;12.10;1.00
23143;DHT22;11740;51.168;4.112;2023-11-19T10:46:14;12.20;1.00
23143;DHT22;11740;51.168;4.112;2023-11-19T10:48:41;12.20;1.00
23143;DHT22;11740;51.168;4.112;2023-11-19T10:51:08;12.20;1.00
23143;DHT22;11740;51.168;4.112;2023-11-19T10:53:36;12.30;1.00
23143;DHT22;11740;51.168;4.112;2023-11-19T10:56:04;12.20;1.00
23143;DHT22;11740;51.168;4.112;2023-11-19T10:58:35;12.20;1.00
23143;DHT22;11740;51.168;4.112;2023-11-19T11:01:06;12.20;1.00
23143;DHT22;11740;51.168;4.112;2023-11-19T11:03:38;12.20;1.00
23143;DHT22;11740;51.168;4.112;2023-11-19T11:06:06;12.30;1.00
23143;DHT22;11740;51.168;4.112;2023-11-19T11:08:34;12.40;1.00
23143;DHT22;11740;51.168;4.112;2023-11-19T11:11:03;12.40;1.00
23143;DHT22;11740;51.168;4.112;2023-11-19T11:13:31;12.50;1.00
23143;DHT22;11740;51.168;4.112;2023-11-19T11:15:58;12.50;99.90
23143;DHT22;11740;51.168;4.112;2023-11-19T11:18:26;12.60;99.90
23143;DHT22;11740;51.168;4.112;2023-11-19T11:20:55;12.60;99.90
23143;DHT22;11740;51.168;4.112;2023-11-19T11:29:03;12.70;99.90
23143;DHT22;11740;51.168;4.112;2023-11-19T11:34:26;12.80;1.00
23143;DHT22;11740;51.168;4.112;2023-11-19T11:37:10;12.90;1.00
23143;DHT22;11740;51.168;4.112;2023-11-19T11:39:46;12.90;1.00
23143;DHT22;11740;51.168;4.112;2023-11-19T11:50:12;12.80;1.00
23143;DHT22;11740;51.168;4.112;2023-11-19T11:57:51;12.70;99.90
23143;DHT22;11740;51.168;4.112;2023-11-19T12:00:22;12.70;99.90
23143;DHT22;11740;51.168;4.112;2023-11-19T12:02:50;12.70;1.00
23143;DHT22;11740;51.168;4.112;2023-11-19T12:05:17;12.60;1.00
23143;DHT22;11740;51.168;4.112;2023-11-19T12:07:54;12.60;1.00
23143;DHT22;11740;51.168;4.112;2023-11-19T12:10:21;12.60;1.00
23143;DHT22;11740;51.168;4.112;2023-11-19T12:12:53;12.60;99.90
23143;DHT22;11740;51.168;4.112;2023-11-19T12:15:22;12.50;99.90
23143;DHT22;11740;51.168;4.112;2023-11-19T12:17:52;12.50;99.90
23143;DHT22;11740;51.168;4.112;2023-11-19T12:20:19;12.50;99.90
23143;DHT22;11740;51.168;4.112;2023-11-19T12:22:50;12.40;99.90
23143;DHT22;11740;51.168;4.112;2023-11-19T12:25:18;12.50;99.90
23143;DHT22;11740;51.168;4.112;2023-11-19T12:27:49;12.50;20.80
23143;DHT22;11740;51.168;4.112;2023-11-19T12:30:18;12.70;1.00
23143;DHT22;11740;51.168;4.112;2023-11-19T12:32:49;12.80;1.00
23143;DHT22;11740;51.168;4.112;2023-11-19T12:35:16;12.90;1.00
23143;DHT22;11740;51.168;4.112;2023-11-19T12:37:44;12.90;1.00
23143;DHT22;11740;51.168;4.112;2023-11-19T12:42:49;13.00;1.00
23143;DHT22;11740;51.168;4.112;2023-11-19T12:45:17;13.00;1.00
23143;DHT22;11740;51.168;4.112;2023-11-19T12:47:46;13.10;1.00
23143;DHT22;11740;51.168;4.112;2023-11-19T12:50:19;13.10;99.90
23143;DHT22;11740;51.168;4.112;2023-11-19T12:52:55;13.10;99.90
23143;DHT22;11740;51.168;4.112;2023-11-19T12:55:25;13.10;99.90
23143;DHT22;11740;51.168;4.112;2023-11-19T12:57:56;13.00;99.90
23143;DHT22;11740;51.168;4.112;2023-11-19T13:00:25;13.00;99.90
23143;DHT22;11740;51.168;4.112;2023-11-19T13:02:53;13.00;99.90
23143;DHT22;11740;51.168;4.112;2023-11-19T13:08:03;12.90;99.90
23143;DHT22;11740;51.168;4.112;2023-11-19T13:10:31;12.90;1.00
23143;DHT22;11740;51.168;4.112;2023-11-19T13:13:02;12.80;1.00
23143;DHT22;11740;51.168;4.112;2023-11-19T13:15:35;12.80;1.00
23143;DHT22;11740;51.168;4.112;2023-11-19T13:18:02;12.90;1.00
23143;DHT22;11740;51.168;4.112;2023-11-19T13:20:29;13.00;1.00
23143;DHT22;11740;51.168;4.112;2023-11-19T13:23:03;13.10;1.00
23143;DHT22;11740;51.168;4.112;2023-11-19T13:25:31;13.20;99.90
23143;DHT22;11740;51.168;4.112;2023-11-19T13:27:59;13.30;99.90
23143;DHT22;11740;51.168;4.112;2023-11-19T13:30:26;13.40;40.40
23143;DHT22;11740;51.168;4.112;2023-11-19T13:32:54;13.40;22.30
23143;DHT22;11740;51.168;4.112;2023-11-19T13:35:23;13.50;1.00
23143;DHT22;11740;51.168;4.112;2023-11-19T13:37:51;13.40;1.00
23143;DHT22;11740;51.168;4.112;2023-11-19T13:40:18;13.30;1.00
23143;DHT22;11740;51.168;4.112;2023-11-19T13:42:46;13.20;1.00
23143;DHT22;11740;51.168;4.112;2023-11-19T13:45:13;13.20;1.00
23143;DHT22;11740;51.168;4.112;2023-11-19T13:47:42;13.10;1.00
23143;DHT22;11740;51.168;4.112;2023-11-19T13:50:10;13.10;1.00
23143;DHT22;11740;51.168;4.112;2023-11-19T13:52:38;13.10;1.00
23143;DHT22;11740;51.168;4.112;2023-11-19T13:55:06;13.00;1.00
23143;DHT22;11740;51.168;4.112;2023-11-19T13:57:35;13.00;1.00
23143;DHT22;11740;51.168;4.112;2023-11-19T14:00:02;13.00;99.90
23143;DHT22;11740;51.168;4.112;2023-11-19T14:02:33;13.00;99.90
23143;DHT22;11740;51.168;4.112;2023-11-19T14:05:00;13.00;99.90
23143;DHT22;11740;51.168;4.112;2023-11-19T14:07:27;12.90;18.10
23143;DHT22;11740;51.168;4.112;2023-11-19T14:09:54;12.90;99.90
23143;DHT22;11740;51.168;4.112;2023-11-19T14:12:21;12.90;99.90
23143;DHT22;11740;51.168;4.112;2023-11-19T14:14:48;12.90;99.90
23143;DHT22;11740;51.168;4.112;2023-11-19T14:17:15;12.80;1.00
23143;DHT22;11740;51.168;4.112;2023-11-19T14:19:42;12.80;1.00
23143;DHT22;11740;51.168;4.112;2023-11-19T14:22:10;12.70;1.00
23143;DHT22;11740;51.168;4.112;2023-11-19T14:24:38;12.70;99.90
23143;DHT22;11740;51.168;4.112;2023-11-19T14:27:06;12.80;1.00
23143;DHT22;11740;51.168;4.112;2023-11-19T14:29:33;12.70;1.00
23143;DHT22;11740;51.168;4.112;2023-11-19T14:32:00;12.70;99.90
23143;DHT22;11740;51.168;4.112;2023-11-19T14:34:28;12.80;99.90
23143;DHT22;11740;51.168;4.112;2023-11-19T14:36:58;12.70;99.90
23143;DHT22;11740;51.168;4.112;2023-11-19T14:39:27;12.70;99.90
23143;DHT22;11740;51.168;4.112;2023-11-19T14:41:55;12.60;99.90
23143;DHT22;11740;51.168;4.112;2023-11-19T14:44:25;12.60;99.90
23143;DHT22;11740;51.168;4.112;2023-11-19T14:46:51;12.60;99.90
23143;DHT22;11740;51.168;4.112;2023-11-19T14:49:18;12.60;99.90
23143;DHT22;11740;51.168;4.112;2023-11-19T14:51:45;12.50;99.90
23143;DHT22;11740;51.168;4.112;2023-11-19T14:54:14;12.60;99.90
23143;DHT22;11740;51.168;4.112;2023-11-19T14:56:42;12.50;99.90
23143;DHT22;11740;51.168;4.112;2023-11-19T14:59:09;12.50;99.90
23143;DHT22;11740;51.168;4.112;2023-11-19T15:01:36;12.50;99.90
23143;DHT22;11740;51.168;4.112;2023-11-19T15:04:03;12.50;99.90
23143;DHT22;11740;51.168;4.112;2023-11-19T15:06:32;12.50;99.90
23143;DHT22;11740;51.168;4.112;2023-11-19T15:09:00;12.40;99.90
23143;DHT22;11740;51.168;4.112;2023-11-19T15:11:28;12.40;99.90
23143;DHT22;11740;51.168;4.112;2023-11-19T15:13:55;12.50;99.90
23143;DHT22;11740;51.168;4.112;2023-11-19T15:16:22;12.50;99.90
23143;DHT22;11740;51.168;4.112;2023-11-19T15:18:58;12.40;99.90
23143;DHT22;11740;51.168;4.112;2023-11-19T15:21:30;12.40;99.90
23143;DHT22;11740;51.168;4.112;2023-11-19T15:23:56;12.40;1.00
23143;DHT22;11740;51.168;4.112;2023-11-19T15:26:23;12.40;1.00
23143;DHT22;11740;51.168;4.112;2023-11-19T15:28:50;12.40;1.00
23143;DHT22;11740;51.168;4.112;2023-11-19T15:31:17;12.40;1.00
23143;DHT22;11740;51.168;4.112;2023-11-19T15:33:44;12.40;1.00
23143;DHT22;11740;51.168;4.112;2023-11-19T15:36:13;12.30;1.00
23143;DHT22;11740;51.168;4.112;2023-11-19T15:38:40;12.30;1.00
23143;DHT22;11740;51.168;4.112;2023-11-19T15:41:10;12.30;1.00
23143;DHT22;11740;51.168;4.112;2023-11-19T15:43:39;12.30;1.00
23143;DHT22;11740;51.168;4.112;2023-11-19T15:46:07;12.30;1.00
23143;DHT22;11740;51.168;4.112;2023-11-19T15:48:34;12.30;1.00
23143;DHT22;11740;51.168;4.112;2023-11-19T15:51:01;12.30;1.00
23143;DHT22;11740;51.168;4.112;2023-11-19T15:53:29;12.20;99.90
23143;DHT22;11740;51.168;4.112;2023-11-19T15:55:59;12.20;99.90
23143;DHT22;11740;51.168;4.112;2023-11-19T15:58:26;12.10;99.90
23143;DHT22;11740;51.168;4.112;2023-11-19T16:00:53;12.10;99.90
23143;DHT22;11740;51.168;4.112;2023-11-19T16:03:20;12.10;99.90
23143;DHT22;11740;51.168;4.112;2023-11-19T16:05:47;12.00;1.00
23143;DHT22;11740;51.168;4.112;2023-11-19T16:08:29;12.10;1.00